createdAt,value
2023-03-25T00:00:10.708Z,99555.97
2023-03-25T00:03:12.663Z,99547.44
2023-03-25T00:06:14.454Z,99561.91
2023-03-25T00:09:16.113Z,99553.78
2023-03-25T00:12:19.907Z,99565.72
2023-03-25T00:15:22.295Z,99564.41
2023-03-25T00:18:26.061Z,99572.88
2023-03-25T00:21:27.799Z,99570.38
2023-03-25T00:24:29.885Z,99573.97
2023-03-25T00:27:32.906Z,99591.31
2023-03-25T00:30:34.898Z,99594.88
2023-03-25T00:33:36.729Z,99588.72
2023-03-25T00:36:38.452Z,99592.66
2023-03-25T00:39:40.426Z,99597.66
2023-03-25T00:42:44.690Z,99593.44
2023-03-25T00:45:46.899Z,99587.69
2023-03-25T00:48:54.465Z,99574.31
2023-03-25T00:51:56.611Z,99558.41
2023-03-25T00:54:59.948Z,99567.97
2023-03-25T00:58:03.607Z,99569.31
2023-03-25T01:01:10.892Z,99574.69
2023-03-25T01:04:12.652Z,99573.91
2023-03-25T01:07:16.763Z,99565.78
2023-03-25T01:10:18.569Z,99564.72
2023-03-25T01:13:23.456Z,99566.16
2023-03-25T01:16:26.005Z,99560.78
2023-03-25T01:19:27.803Z,99556.56
2023-03-25T01:22:29.508Z,99560.38
2023-03-25T01:25:31.442Z,99550.19
2023-03-25T01:28:34.534Z,99542.06
2023-03-25T01:31:39.270Z,99543.53
2023-03-25T01:34:42.784Z,99544.44
2023-03-25T01:37:46.732Z,99544.06
2023-03-25T01:40:50.183Z,99533.81
2023-03-25T01:44:04.829Z,99528.34
2023-03-25T01:47:08.345Z,99530.03
2023-03-25T01:50:14.914Z,99526.47
2023-03-25T01:53:16.901Z,99526.06
2023-03-25T01:56:22.558Z,99539.06
2023-03-25T01:59:28.505Z,99547.03
2023-03-25T02:02:34.822Z,99593.53
2023-03-25T02:05:42.531Z,99589.91
2023-03-25T02:08:44.295Z,99568.09
2023-03-25T02:11:46.949Z,99553.25
2023-03-25T02:14:50.795Z,99559.84
2023-03-25T02:18:19.667Z,99539.03
2023-03-25T02:22:02.202Z,99543.75
2023-03-25T02:25:49.990Z,99527.59
2023-03-25T02:28:53.440Z,99528.69
2023-03-25T02:32:11.881Z,99528.97
2023-03-25T02:35:34.351Z,99536.41
2023-03-25T02:38:43.337Z,99550.03
2023-03-25T02:41:52.917Z,99563.41
2023-03-25T02:44:58.560Z,99576.31
2023-03-25T02:48:05.498Z,99574.38
2023-03-25T02:51:12.403Z,99571.88
2023-03-25T02:54:17.108Z,99569.91
2023-03-25T02:57:21.820Z,99578.38
2023-03-25T03:00:26.874Z,99565.22
2023-03-25T03:03:29.223Z,99572.16
2023-03-25T03:06:41.190Z,99568.94
2023-03-25T03:09:49.868Z,99573.69
2023-03-25T03:13:02.389Z,99575.63
2023-03-25T03:16:14.197Z,99562.69
2023-03-25T03:19:31.532Z,99566.19
2023-03-25T03:22:39.598Z,99567.34
2023-03-25T03:25:50.091Z,99562.06
2023-03-25T03:28:59.708Z,99563.25
2023-03-25T03:32:09.029Z,99569.31
2023-03-25T03:35:17.128Z,99568.06
2023-03-25T03:38:22.812Z,99559.44
2023-03-25T03:41:28.680Z,99558.81
2023-03-25T03:44:34.304Z,99563.22
2023-03-25T03:47:41.847Z,99571.25
2023-03-25T03:50:50.592Z,99579.09
2023-03-25T03:53:58.397Z,99576.47
2023-03-25T03:57:05.323Z,99581.72
2023-03-25T04:00:15.508Z,99587.22
2023-03-25T04:03:24.300Z,99585.16
2023-03-25T04:06:35.345Z,99578.59
2023-03-25T04:09:43.620Z,99586.44
2023-03-25T04:12:52.558Z,99579.22
2023-03-25T04:15:54.441Z,99576.88
2023-03-25T04:18:58.375Z,99581.63
2023-03-25T04:22:01.718Z,99577.78
2023-03-25T04:25:04.621Z,99574.13
2023-03-25T04:28:08.800Z,99582.75
2023-03-25T04:31:15.586Z,99586.44
2023-03-25T04:34:17.439Z,99583.03
2023-03-25T04:37:19.470Z,99589.84
2023-03-25T04:40:21.345Z,99599.22
2023-03-25T04:43:24.394Z,99601.84
2023-03-25T04:46:26.668Z,99603.28
2023-03-25T04:49:28.480Z,99598.81
2023-03-25T04:52:30.660Z,99597.41
2023-03-25T04:55:34.674Z,99605.91
2023-03-25T04:58:37.785Z,99597.69
2023-03-25T05:01:42.320Z,99607.06
2023-03-25T05:04:47.920Z,99596.28
2023-03-25T05:07:51.840Z,99591.09
2023-03-25T05:10:53.688Z,99587.22
2023-03-25T05:13:56.993Z,99594.13
2023-03-25T05:17:00.273Z,99588.56
2023-03-25T05:20:02.347Z,99588.00
2023-03-25T05:23:04.540Z,99596.34
2023-03-25T05:26:06.766Z,99599.84
2023-03-25T05:29:14.072Z,99606.25
2023-03-25T05:32:17.826Z,99604.91
2023-03-25T05:35:20.962Z,99602.84
2023-03-25T05:38:22.861Z,99607.53
2023-03-25T05:41:32.367Z,99617.97
2023-03-25T05:44:55.669Z,99613.53
2023-03-25T05:47:59.299Z,99611.03
2023-03-25T05:51:04.452Z,99608.50
2023-03-25T05:54:10.956Z,99617.63
2023-03-25T05:57:14.128Z,99619.25
2023-03-25T06:00:19.747Z,99629.22
2023-03-25T06:03:22.193Z,99611.28
2023-03-25T06:06:25.794Z,99636.56
2023-03-25T06:09:31.010Z,99633.22
2023-03-25T06:12:33.173Z,99646.50
2023-03-25T06:15:40.632Z,99639.72
2023-03-25T06:18:42.590Z,99641.03
2023-03-25T06:21:51.464Z,99653.34
2023-03-25T06:24:53.417Z,99653.09
2023-03-25T06:27:56.135Z,99656.69
2023-03-25T06:30:59.379Z,99643.88
2023-03-25T06:34:01.766Z,99653.56
2023-03-25T06:37:03.712Z,99657.25
2023-03-25T06:40:06.841Z,99667.47
2023-03-25T06:43:09.418Z,99643.47
2023-03-25T06:46:12.944Z,99648.16
2023-03-25T06:49:35.467Z,99666.72
2023-03-25T06:52:37.169Z,99669.19
2023-03-25T06:55:39.522Z,99663.25
2023-03-25T06:58:42.426Z,99657.75
2023-03-25T07:01:45.950Z,99649.38
2023-03-25T07:04:48.048Z,99652.41
2023-03-25T07:07:50.865Z,99660.56
2023-03-25T07:10:52.561Z,99650.09
2023-03-25T07:13:55.957Z,99642.00
2023-03-25T07:17:01.411Z,99638.19
2023-03-25T07:20:04.343Z,99640.22
2023-03-25T07:23:26.385Z,99629.44
2023-03-25T07:26:28.191Z,99636.53
2023-03-25T07:29:30.549Z,99625.78
2023-03-25T07:32:33.753Z,99622.91
2023-03-25T07:35:36.137Z,99627.22
2023-03-25T07:38:37.922Z,99608.72
2023-03-25T07:41:39.773Z,99632.06
2023-03-25T07:44:54.113Z,99627.19
2023-03-25T07:47:57.322Z,99625.25
2023-03-25T07:50:59.120Z,99617.22
2023-03-25T07:54:05.610Z,99618.66
2023-03-25T07:57:08.105Z,99621.81
2023-03-25T08:00:11.221Z,99613.09
2023-03-25T08:03:17.821Z,99604.72
2023-03-25T08:06:19.960Z,99624.53
2023-03-25T08:09:21.615Z,99632.56
2023-03-25T08:12:23.435Z,99619.06
2023-03-25T08:15:25.302Z,99628.03
2023-03-25T08:18:28.623Z,99639.78
2023-03-25T08:21:30.449Z,99634.41
2023-03-25T08:24:32.613Z,99635.06
2023-03-25T08:27:34.624Z,99639.91
2023-03-25T08:30:38.906Z,99636.09
2023-03-25T08:33:42.872Z,99643.44
2023-03-25T08:36:44.726Z,99622.91
2023-03-25T08:39:50.035Z,99622.91
2023-03-25T08:42:51.799Z,99612.13
2023-03-25T08:45:53.826Z,99618.00
2023-03-25T08:48:57.301Z,99608.03
2023-03-25T08:52:01.000Z,99633.22
2023-03-25T08:55:03.259Z,99638.66
2023-03-25T08:58:08.036Z,99634.19
2023-03-25T09:01:09.796Z,99630.47
2023-03-25T09:04:13.603Z,99635.22
2023-03-25T09:07:15.803Z,99633.50
2023-03-25T09:10:19.109Z,99624.19
2023-03-25T09:13:21.005Z,99627.88
2023-03-25T09:16:24.093Z,99629.31
2023-03-25T09:19:27.347Z,99623.41
2023-03-25T09:22:29.068Z,99613.81
2023-03-25T09:25:30.750Z,99615.66
2023-03-25T09:28:33.043Z,99606.63
2023-03-25T09:31:35.601Z,99612.38
2023-03-25T09:34:39.450Z,99599.75
2023-03-25T09:37:43.328Z,99598.47
2023-03-25T09:40:46.145Z,99601.59
2023-03-25T09:43:57.422Z,99621.00
2023-03-25T09:47:01.854Z,99610.84
2023-03-25T09:50:10.757Z,99610.78
2023-03-25T09:53:23.424Z,99609.72
2023-03-25T09:56:29.495Z,99602.50
2023-03-25T09:59:40.562Z,99606.56
2023-03-25T10:02:46.284Z,99593.00
2023-03-25T10:06:03.692Z,99600.22
2023-03-25T10:09:26.470Z,99615.03
2023-03-25T10:12:41.863Z,99626.25
2023-03-25T10:15:51.746Z,99622.72
2023-03-25T10:19:04.790Z,99623.09
2023-03-25T10:22:16.178Z,99607.78
2023-03-25T10:25:22.667Z,99607.94
2023-03-25T10:28:28.613Z,99604.88
2023-03-25T10:31:36.175Z,99607.91
2023-03-25T10:34:43.108Z,99622.41
2023-03-25T10:37:49.611Z,99621.13
2023-03-25T10:40:59.907Z,99611.50
2023-03-25T10:44:09.223Z,99618.63
2023-03-25T10:47:16.082Z,99617.34
2023-03-25T10:50:40.254Z,99630.50
2023-03-25T10:53:48.300Z,99602.47
2023-03-25T10:56:53.020Z,99587.41
2023-03-25T11:00:04.813Z,99587.47
2023-03-25T11:03:15.404Z,99583.22
2023-03-25T11:06:26.568Z,99645.84
2023-03-25T11:09:31.044Z,99705.69
2023-03-25T11:12:42.432Z,99693.47
2023-03-25T11:15:45.015Z,99677.84
2023-03-25T11:18:48.244Z,99680.06
2023-03-25T11:21:58.901Z,99685.72
2023-03-25T11:25:07.945Z,99673.00
2023-03-25T11:28:16.166Z,99674.47
2023-03-25T11:31:20.121Z,99666.00
2023-03-25T11:34:23.994Z,99677.28
2023-03-25T11:37:31.072Z,99669.25
2023-03-25T11:40:49.046Z,99665.78
2023-03-25T11:43:51.378Z,99652.13
2023-03-25T11:46:56.491Z,99653.59
2023-03-25T11:50:01.991Z,99654.88
2023-03-25T11:53:06.116Z,99648.00
2023-03-25T11:56:12.143Z,99666.78
2023-03-25T11:59:24.811Z,99656.44
2023-03-25T12:02:31.322Z,99680.72
2023-03-25T12:05:37.030Z,99666.22
2023-03-25T12:08:43.994Z,99680.53
2023-03-25T12:11:56.899Z,99658.44
2023-03-25T12:15:09.292Z,99639.97
2023-03-25T12:18:34.948Z,99637.75
2023-03-25T12:21:58.012Z,99638.91
2023-03-25T12:25:12.162Z,99629.63
2023-03-25T12:28:46.667Z,99651.19
2023-03-25T12:32:04.074Z,99636.25
2023-03-25T12:35:28.386Z,99629.66
2023-03-25T12:38:41.210Z,99645.19
2023-03-25T12:41:54.354Z,99624.41
2023-03-25T12:45:12.766Z,99650.63
2023-03-25T12:48:28.676Z,99626.66
2023-03-25T12:51:44.128Z,99661.59
2023-03-25T12:54:58.813Z,99638.03
2023-03-25T12:58:20.989Z,99631.94
2023-03-25T13:01:28.382Z,99623.69
2023-03-25T13:04:52.043Z,99625.09
2023-03-25T13:07:58.087Z,99637.66
2023-03-25T13:11:06.516Z,99640.19
2023-03-25T13:14:16.254Z,99629.22
2023-03-25T13:17:27.030Z,99641.34
2023-03-25T13:20:34.510Z,99650.84
2023-03-25T13:23:38.290Z,99624.94
2023-03-25T13:26:43.804Z,99626.38
2023-03-25T13:29:49.517Z,99625.94
2023-03-25T13:32:55.595Z,99614.06
2023-03-25T13:36:05.844Z,99612.88
2023-03-25T13:39:14.383Z,99611.59
2023-03-25T13:42:21.029Z,99633.69
2023-03-25T13:45:24.313Z,99625.56
2023-03-25T13:48:33.395Z,99605.09
2023-03-25T13:51:36.672Z,99631.50
2023-03-25T13:54:45.304Z,99636.59
2023-03-25T13:58:12.862Z,99647.63
2023-03-25T14:01:53.346Z,99645.22
2023-03-25T14:05:25.727Z,99645.81
2023-03-25T14:09:05.718Z,99635.59
2023-03-25T14:12:11.386Z,99630.66
2023-03-25T14:15:20.550Z,99638.25
2023-03-25T14:18:22.685Z,99639.28
2023-03-25T14:21:34.358Z,99639.59
2023-03-25T14:24:38.087Z,99639.59
2023-03-25T14:27:40.721Z,99649.19
2023-03-25T14:30:43.182Z,99642.69
2023-03-25T14:34:22.277Z,99638.97
2023-03-25T14:37:30.521Z,99654.31
2023-03-25T14:41:02.282Z,99627.13
2023-03-25T14:44:19.008Z,99618.56
2023-03-25T14:47:34.063Z,99621.63
2023-03-25T14:50:37.313Z,99628.72
2023-03-25T14:53:40.913Z,99615.84
2023-03-25T14:56:53.287Z,99625.53
2023-03-25T15:00:01.247Z,99635.03
2023-03-25T15:03:08.899Z,99625.13
2023-03-25T15:06:17.101Z,99596.94
2023-03-25T15:09:21.093Z,99612.56
2023-03-25T15:12:26.664Z,99629.41
2023-03-25T15:15:32.828Z,99643.09
2023-03-25T15:19:03.132Z,99630.34
2023-03-25T15:22:17.620Z,99634.66
2023-03-25T15:25:20.881Z,99625.41
2023-03-25T15:28:56.703Z,99652.63
2023-03-25T15:32:12.162Z,99652.19
2023-03-25T15:35:36.227Z,99635.75
2023-03-25T15:38:49.684Z,99616.16
2023-03-25T15:42:17.992Z,99610.53
2023-03-25T15:45:32.379Z,99608.44
2023-03-25T15:49:13.681Z,99591.25
2023-03-25T15:52:29.965Z,99593.09
2023-03-25T15:55:38.248Z,99592.28
2023-03-25T15:58:48.584Z,99586.88
2023-03-25T16:01:52.908Z,99583.97
2023-03-25T16:04:55.786Z,99580.34
2023-03-25T16:08:01.243Z,99578.22
2023-03-25T16:11:23.303Z,99600.38
2023-03-25T16:14:30.360Z,99579.44
2023-03-25T16:17:34.773Z,99591.06
2023-03-25T16:20:37.052Z,99586.56
2023-03-25T16:23:39.557Z,99601.16
2023-03-25T16:26:44.358Z,99588.06
2023-03-25T16:29:50.546Z,99601.88
2023-03-25T16:32:53.728Z,99593.66
2023-03-25T16:35:59.170Z,99588.03
2023-03-25T16:39:01.130Z,99594.94
2023-03-25T16:42:06.951Z,99593.47
2023-03-25T16:45:15.536Z,99591.84
2023-03-25T16:48:27.150Z,99587.16
2023-03-25T16:51:35.224Z,99580.69
2023-03-25T16:54:43.801Z,99588.63
2023-03-25T16:57:46.589Z,99580.78
2023-03-25T17:00:51.891Z,99566.13
2023-03-25T17:04:08.992Z,99572.41
2023-03-25T17:07:14.774Z,99579.53
2023-03-25T17:10:23.108Z,99574.06
2023-03-25T17:13:27.732Z,99574.84
2023-03-25T17:16:32.299Z,99583.00
2023-03-25T17:19:39.048Z,99581.66
2023-03-25T17:22:41.107Z,99585.22
2023-03-25T17:25:52.603Z,99589.00
2023-03-25T17:29:02.981Z,99585.53
2023-03-25T17:32:17.784Z,99599.09
2023-03-25T17:35:27.562Z,99615.72
2023-03-25T17:38:34.043Z,99612.78
2023-03-25T17:41:37.809Z,99624.56
2023-03-25T17:44:43.246Z,99637.97
2023-03-25T17:47:46.971Z,99657.81
2023-03-25T17:50:54.871Z,99691.31
2023-03-25T17:53:57.438Z,99719.19
2023-03-25T17:56:59.451Z,99767.47
2023-03-25T18:00:01.497Z,99759.00
2023-03-25T18:03:10.594Z,99794.94
2023-03-25T18:06:13.882Z,99793.28
2023-03-25T18:09:17.115Z,99765.31
2023-03-25T18:12:19.001Z,99779.81
2023-03-25T18:15:21.189Z,99777.19
2023-03-25T18:18:25.274Z,99763.94
2023-03-25T18:21:28.713Z,99772.09
2023-03-25T18:24:34.169Z,99779.59
2023-03-25T18:27:43.278Z,99775.72
2023-03-25T18:30:49.232Z,99776.44
2023-03-25T18:33:51.633Z,99773.50
2023-03-25T18:36:55.279Z,99768.97
2023-03-25T18:39:57.442Z,99778.41
2023-03-25T18:42:59.328Z,99778.13
2023-03-25T18:46:01.513Z,99778.72
2023-03-25T18:49:06.868Z,99779.03
2023-03-25T18:52:10.293Z,99783.31
2023-03-25T18:55:13.291Z,99790.53
2023-03-25T18:58:17.689Z,99790.69
2023-03-25T19:01:21.679Z,99791.69
2023-03-25T19:04:23.564Z,99789.69
2023-03-25T19:07:46.900Z,99773.59
2023-03-25T19:10:49.357Z,99774.59
2023-03-25T19:14:11.263Z,99789.56
2023-03-25T19:17:13.290Z,99794.69
2023-03-25T19:20:18.152Z,99799.56
2023-03-25T19:23:21.441Z,99797.56
2023-03-25T19:26:23.277Z,99808.69
2023-03-25T19:29:25.066Z,99801.81
2023-03-25T19:32:29.665Z,99794.28
2023-03-25T19:35:32.928Z,99795.41
2023-03-25T19:38:36.100Z,99803.16
2023-03-25T19:41:42.853Z,99809.75
2023-03-25T19:44:46.746Z,99808.88
2023-03-25T19:47:52.800Z,99800.75
2023-03-25T19:50:57.245Z,99798.41
2023-03-25T19:54:00.852Z,99798.97
2023-03-25T19:57:02.942Z,99794.28
2023-03-25T20:00:14.404Z,99800.47
2023-03-25T20:03:16.325Z,99792.81
2023-03-25T20:06:18.284Z,99797.16
2023-03-25T20:09:21.614Z,99789.41
2023-03-25T20:12:23.863Z,99782.59
2023-03-25T20:15:27.191Z,99777.84
2023-03-25T20:18:28.988Z,99784.44
2023-03-25T20:21:31.027Z,99799.53
2023-03-25T20:24:34.595Z,99785.53
2023-03-25T20:27:36.988Z,99780.91
2023-03-25T20:30:38.992Z,99787.97
2023-03-25T20:33:40.895Z,99779.88
2023-03-25T20:36:42.739Z,99775.28
2023-03-25T20:39:46.095Z,99772.34
2023-03-25T20:42:49.937Z,99774.19
2023-03-25T20:45:54.574Z,99771.50
2023-03-25T20:48:57.192Z,99765.72
2023-03-25T20:51:59.455Z,99778.53
2023-03-25T20:55:03.190Z,99782.38
2023-03-25T20:58:05.936Z,99776.50
2023-03-25T21:01:07.917Z,99777.31
2023-03-25T21:04:11.600Z,99777.44
2023-03-25T21:07:13.749Z,99771.13
2023-03-25T21:10:20.112Z,99779.44
2023-03-25T21:13:22.106Z,99789.13
2023-03-25T21:16:24.003Z,99802.38
2023-03-25T21:19:26.067Z,99803.81
2023-03-25T21:22:28.548Z,99811.09
2023-03-25T21:25:35.156Z,99810.84
2023-03-25T21:28:38.234Z,99810.06
2023-03-25T21:31:41.129Z,99810.84
2023-03-25T21:34:42.829Z,99808.34
2023-03-25T21:37:47.189Z,99801.25
2023-03-25T21:40:55.969Z,99798.88
2023-03-25T21:43:58.032Z,99803.06
2023-03-25T21:47:01.361Z,99807.00
2023-03-25T21:50:06.105Z,99812.81
2023-03-25T21:53:13.119Z,99809.56
2023-03-25T21:56:18.123Z,99804.31
2023-03-25T21:59:20.646Z,99796.72
2023-03-25T22:02:25.472Z,99792.81
2023-03-25T22:05:32.134Z,99807.47
2023-03-25T22:08:34.938Z,99809.06
2023-03-25T22:11:38.262Z,99813.22
2023-03-25T22:14:40.468Z,99813.09
2023-03-25T22:17:44.656Z,99812.31
2023-03-25T22:20:47.297Z,99802.47
2023-03-25T22:23:52.117Z,99799.78
2023-03-25T22:26:55.462Z,99805.34
2023-03-25T22:29:57.145Z,99803.31
2023-03-25T22:32:59.051Z,99802.78
2023-03-25T22:36:06.759Z,99800.44
2023-03-25T22:39:17.836Z,99808.16
2023-03-25T22:42:21.937Z,99809.75
2023-03-25T22:45:23.774Z,99810.47
2023-03-25T22:48:26.158Z,99810.56
2023-03-25T22:51:28.406Z,99803.06
2023-03-25T22:54:32.137Z,99804.34
2023-03-25T22:57:41.558Z,99811.25
2023-03-25T23:04:05.083Z,99813.91
2023-03-25T23:07:08.636Z,99815.09
2023-03-25T23:10:13.644Z,99816.63
2023-03-25T23:13:17.000Z,99816.50
2023-03-25T23:16:21.411Z,99807.06
2023-03-25T23:19:23.669Z,99809.41
2023-03-25T23:22:25.816Z,99799.06
2023-03-25T23:25:27.833Z,99809.28
2023-03-25T23:28:34.280Z,99810.03
2023-03-25T23:31:37.590Z,99803.88
2023-03-25T23:34:40.068Z,99808.69
2023-03-25T23:37:43.605Z,99796.53
2023-03-25T23:40:45.809Z,99811.16
2023-03-25T23:43:49.189Z,99800.69
2023-03-25T23:47:01.942Z,99801.81
2023-03-25T23:50:04.270Z,99794.09
2023-03-25T23:53:06.375Z,99802.75
2023-03-25T23:56:08.483Z,99803.66
2023-03-25T23:59:13.352Z,99800.41
